logo
Search for airport 
image banner adimage banner adimage banner ad
image banner ad

LKCHOV - Chotesov

Located in Chotěšov, Czech Republic

ICAO - , IATA -

Data provided by Airmate  

General information

Coordinates: N49°39'6" E13°11'23"
Elevation is 1207 feet MSL.
 
View others Airports in Plzen Region

Operational data

Special qualification required
Current time UTC:
Current local time:
Weather at : LKLN - Plzen/Line ( 7 km )
METAR: LKLN 282100Z AUTO VRB01KT 9999 FEW076 11/08 Q1020
View NOTAMs / SUP AIP / TFR affecting this airport [VIEW]
Communications frequencies: [VIEW]

Runways:

RWY identifierQFULength (ft)Width (ft)SurfaceLDA (ft)
0984°180449ASPH1804
27264°180449ASPH1804

Airport contact information

Address: Chotěšov Czech Republic

Satellite view of LKCHOV